sensor_id;sensor_type;location;lat;lon;timestamp;temperature;humidity
18266;DHT22;9259;48.194;16.322;2023-02-28T12:25:59;6.00;99.90
18266;DHT22;9259;48.194;16.322;2023-02-28T12:28:39;10.10;99.90
18266;DHT22;9259;48.194;16.322;2023-02-28T12:31:16;9.40;99.10
18266;DHT22;9259;48.194;16.322;2023-02-28T12:33:51;8.10;99.90
18266;DHT22;9259;48.194;16.322;2023-02-28T12:36:20;8.10;99.90
18266;DHT22;9259;48.194;16.322;2023-02-28T12:38:55;8.00;99.90
18266;DHT22;9259;48.194;16.322;2023-02-28T12:41:31;7.90;99.90
18266;DHT22;9259;48.194;16.322;2023-02-28T12:44:06;7.40;99.90
18266;DHT22;9259;48.194;16.322;2023-02-28T12:46:41;7.60;99.90
18266;DHT22;9259;48.194;16.322;2023-02-28T12:49:14;7.60;99.90
18266;DHT22;9259;48.194;16.322;2023-02-28T12:51:44;9.30;99.30
18266;DHT22;9259;48.194;16.322;2023-02-28T12:54:21;10.30;97.70
18266;DHT22;9259;48.194;16.322;2023-02-28T12:56:57;9.70;97.30
18266;DHT22;9259;48.194;16.322;2023-02-28T12:59:34;10.30;97.80
18266;DHT22;9259;48.194;16.322;2023-02-28T13:02:46;10.30;97.40
18266;DHT22;9259;48.194;16.322;2023-02-28T13:09:02;9.50;95.60
18266;DHT22;9259;48.194;16.322;2023-02-28T13:11:40;9.20;96.90
18266;DHT22;9259;48.194;16.322;2023-02-28T13:14:24;10.40;95.70
18266;DHT22;9259;48.194;16.322;2023-02-28T13:17:01;11.20;95.00
18266;DHT22;9259;48.194;16.322;2023-02-28T13:19:32;10.20;94.90
18266;DHT22;9259;48.194;16.322;2023-02-28T13:22:02;8.20;95.40
18266;DHT22;9259;48.194;16.322;2023-02-28T13:24:40;7.30;97.60
18266;DHT22;9259;48.194;16.322;2023-02-28T13:27:36;7.30;97.90
18266;DHT22;9259;48.194;16.322;2023-02-28T13:33:31;8.20;95.20
18266;DHT22;9259;48.194;16.322;2023-02-28T13:36:22;8.00;96.20
18266;DHT22;9259;48.194;16.322;2023-02-28T13:38:55;7.20;97.00
18266;DHT22;9259;48.194;16.322;2023-02-28T13:41:45;7.50;97.70
18266;DHT22;9259;48.194;16.322;2023-02-28T13:44:19;8.50;95.20
18266;DHT22;9259;48.194;16.322;2023-02-28T13:47:22;9.10;95.10
18266;DHT22;9259;48.194;16.322;2023-02-28T13:49:52;9.60;94.80
18266;DHT22;9259;48.194;16.322;2023-02-28T13:52:22;10.20;94.10
18266;DHT22;9259;48.194;16.322;2023-02-28T13:55:01;9.90;94.00
18266;DHT22;9259;48.194;16.322;2023-02-28T13:57:53;9.00;94.50
18266;DHT22;9259;48.194;16.322;2023-02-28T14:00:37;9.30;94.20
18266;DHT22;9259;48.194;16.322;2023-02-28T14:03:35;9.40;95.00
18266;DHT22;9259;48.194;16.322;2023-02-28T14:06:22;9.20;95.80
18266;DHT22;9259;48.194;16.322;2023-02-28T14:08:55;9.20;94.30
18266;DHT22;9259;48.194;16.322;2023-02-28T14:11:32;9.10;94.50
18266;DHT22;9259;48.194;16.322;2023-02-28T14:14:02;8.40;94.90
18266;DHT22;9259;48.194;16.322;2023-02-28T14:16:39;8.10;95.30
18266;DHT22;9259;48.194;16.322;2023-02-28T14:19:12;8.00;95.40
